createdAt,value
2023-04-20T00:01:33.633Z,101161.38
2023-04-20T00:04:03.346Z,101145.50
2023-04-20T00:06:33.049Z,101147.75
2023-04-20T00:09:01.307Z,101155.28
2023-04-20T00:11:29.486Z,101147.47
2023-04-20T00:13:57.865Z,101152.84
2023-04-20T00:16:26.326Z,101153.16
2023-04-20T00:18:54.983Z,101151.47
2023-04-20T00:21:24.805Z,101152.44
2023-04-20T00:23:52.975Z,101145.63
2023-04-20T00:26:21.335Z,101146.06
2023-04-20T00:28:53.722Z,101146.34
2023-04-20T00:31:21.853Z,101145.63
2023-04-20T00:33:50.013Z,101136.13
2023-04-20T00:36:18.133Z,101135.28
2023-04-20T00:38:47.762Z,101132.00
2023-04-20T00:41:16.093Z,101133.16
2023-04-20T00:43:51.014Z,101138.56
2023-04-20T00:46:19.114Z,101136.09
2023-04-20T00:48:47.828Z,101132.56
2023-04-20T00:51:15.965Z,101139.81
2023-04-20T00:53:44.097Z,101153.44
2023-04-20T00:56:15.110Z,101129.03
2023-04-20T00:58:43.900Z,101133.56
2023-04-20T01:01:12.755Z,101125.63
2023-04-20T01:03:40.993Z,101134.69
2023-04-20T01:06:09.643Z,101133.25
2023-04-20T01:08:38.285Z,101134.09
2023-04-20T01:11:06.623Z,101138.91
2023-04-20T01:13:38.579Z,101116.63
2023-04-20T01:16:08.043Z,101115.94
2023-04-20T01:18:42.550Z,101118.06
2023-04-20T01:21:10.730Z,101116.78
2023-04-20T01:23:40.280Z,101113.63
2023-04-20T01:26:08.620Z,101110.25
2023-04-20T01:28:37.111Z,101108.66
2023-04-20T01:31:05.382Z,101106.25
2023-04-20T01:33:33.463Z,101091.78
2023-04-20T01:36:01.592Z,101090.63
2023-04-20T01:38:32.220Z,101081.13
2023-04-20T01:41:05.620Z,101081.84
2023-04-20T01:43:34.535Z,101075.72
2023-04-20T01:46:02.883Z,101079.97
2023-04-20T01:48:31.172Z,101102.19
2023-04-20T01:50:59.227Z,101084.47
2023-04-20T01:53:27.263Z,101090.28
2023-04-20T01:55:55.790Z,101076.91
2023-04-20T01:58:26.085Z,101088.19
2023-04-20T02:00:54.201Z,101085.34
2023-04-20T02:03:22.537Z,101101.50
2023-04-20T02:05:51.027Z,101089.31
2023-04-20T02:08:19.688Z,101100.34
2023-04-20T02:10:47.742Z,101097.78
2023-04-20T02:13:15.841Z,101108.78
2023-04-20T02:15:47.744Z,101104.56
2023-04-20T02:18:17.071Z,101109.59
2023-04-20T02:20:45.566Z,101106.31
2023-04-20T02:23:14.377Z,101108.44
2023-04-20T02:25:42.521Z,101106.38
2023-04-20T02:28:12.462Z,101114.00
2023-04-20T02:30:40.531Z,101110.00
2023-04-20T02:33:10.030Z,101116.75
2023-04-20T02:35:38.078Z,101107.38
2023-04-20T02:38:06.363Z,101095.19
2023-04-20T02:40:34.882Z,101107.84
2023-04-20T02:43:03.945Z,101096.59
2023-04-20T02:45:33.396Z,101103.41
2023-04-20T02:48:01.980Z,101106.75
2023-04-20T02:50:35.200Z,101111.19
2023-04-20T02:53:23.548Z,101111.06
2023-04-20T02:56:10.250Z,101107.06
2023-04-20T02:58:48.666Z,101106.81
2023-04-20T03:01:43.129Z,101097.06
2023-04-20T03:04:16.906Z,101106.59
2023-04-20T03:07:05.055Z,101101.97
2023-04-20T03:09:35.908Z,101100.75
2023-04-20T03:12:24.910Z,101099.94
2023-04-20T03:14:56.041Z,101094.44
2023-04-20T03:17:33.293Z,101103.56
2023-04-20T03:20:01.442Z,101101.25
2023-04-20T03:22:31.959Z,101093.81
2023-04-20T03:25:02.586Z,101091.25
2023-04-20T03:28:00.772Z,101090.53
2023-04-20T03:30:30.231Z,101088.09
2023-04-20T03:33:04.800Z,101088.31
2023-04-20T03:35:33.833Z,101094.66
2023-04-20T03:38:03.362Z,101089.56
2023-04-20T03:40:31.791Z,101093.44
2023-04-20T03:42:59.880Z,101093.91
2023-04-20T03:45:29.599Z,101085.72
2023-04-20T03:47:58.125Z,101081.97
2023-04-20T03:50:27.478Z,101082.22
2023-04-20T03:52:56.053Z,101080.16
2023-04-20T03:55:25.837Z,101081.00
2023-04-20T03:58:00.463Z,101088.28
2023-04-20T04:00:35.019Z,101084.38
2023-04-20T04:03:09.982Z,101081.22
2023-04-20T04:05:38.232Z,101083.66
2023-04-20T04:08:06.739Z,101071.22
2023-04-20T04:10:36.313Z,101068.16
2023-04-20T04:13:04.885Z,101068.75
2023-04-20T04:15:33.313Z,101070.81
2023-04-20T04:18:06.819Z,101066.53
2023-04-20T04:20:36.601Z,101065.91
2023-04-20T04:23:04.707Z,101061.66
2023-04-20T04:25:40.451Z,101063.59
2023-04-20T04:28:10.217Z,101072.22
2023-04-20T04:30:44.385Z,101074.75
2023-04-20T04:33:14.839Z,101073.22
2023-04-20T04:35:46.129Z,101081.06
2023-04-20T04:38:15.178Z,101074.69
2023-04-20T04:40:48.201Z,101086.19
2023-04-20T04:43:19.550Z,101080.44
2023-04-20T04:45:58.591Z,101078.31
2023-04-20T04:48:26.854Z,101077.06
2023-04-20T04:50:55.152Z,101075.78
2023-04-20T04:53:23.218Z,101081.59
2023-04-20T04:55:52.983Z,101075.19
2023-04-20T04:58:21.434Z,101076.72
2023-04-20T05:00:49.883Z,101071.47
2023-04-20T05:03:18.509Z,101075.34
2023-04-20T05:05:46.779Z,101064.09
2023-04-20T05:08:15.123Z,101070.72
2023-04-20T05:10:43.415Z,101072.25
2023-04-20T05:13:12.849Z,101080.69
2023-04-20T05:15:42.080Z,101076.94
2023-04-20T05:18:12.366Z,101070.84
2023-04-20T05:20:40.532Z,101074.38
2023-04-20T05:23:08.566Z,101074.19
2023-04-20T05:25:37.010Z,101081.88
2023-04-20T05:28:05.213Z,101081.00
2023-04-20T05:30:34.819Z,101085.72
2023-04-20T05:33:03.891Z,101091.28
2023-04-20T05:35:32.582Z,101094.28
2023-04-20T05:38:02.729Z,101088.06
2023-04-20T05:40:30.845Z,101092.97
2023-04-20T05:42:58.856Z,101098.13
2023-04-20T05:45:26.987Z,101103.47
2023-04-20T05:47:57.428Z,101097.91
2023-04-20T05:50:26.255Z,101107.41
2023-04-20T05:52:54.490Z,101109.53
2023-04-20T05:55:23.114Z,101109.31
2023-04-20T05:57:52.984Z,101106.25
2023-04-20T06:00:23.076Z,101108.78
2023-04-20T06:02:54.544Z,101102.69
2023-04-20T06:05:24.460Z,101109.38
2023-04-20T06:07:53.276Z,101110.66
2023-04-20T06:10:21.604Z,101109.25
2023-04-20T06:12:49.859Z,101106.63
2023-04-20T06:15:18.103Z,101091.25
2023-04-20T06:17:46.534Z,101090.00
2023-04-20T06:20:14.893Z,101088.25
2023-04-20T06:22:45.817Z,101078.50
2023-04-20T06:25:15.499Z,101071.13
2023-04-20T06:27:44.165Z,101084.94
2023-04-20T06:30:12.895Z,101066.16
2023-04-20T06:32:40.982Z,101069.31
2023-04-20T06:35:09.529Z,101071.66
2023-04-20T06:37:38.256Z,101071.66
2023-04-20T06:40:09.495Z,101062.31
2023-04-20T06:42:37.976Z,101055.47
2023-04-20T06:45:06.611Z,101060.81
2023-04-20T06:47:34.725Z,101049.13
2023-04-20T06:50:04.190Z,101040.31
2023-04-20T06:52:32.518Z,101047.41
2023-04-20T06:55:01.361Z,101048.38
2023-04-20T06:57:30.887Z,101057.69
2023-04-20T07:00:00.330Z,101053.94
2023-04-20T07:02:28.952Z,101052.38
2023-04-20T07:05:01.729Z,101057.69
2023-04-20T07:07:29.958Z,101051.19
2023-04-20T07:09:58.065Z,101059.47
2023-04-20T07:12:26.584Z,101059.22
2023-04-20T07:14:56.246Z,101058.81
2023-04-20T07:17:25.923Z,101058.84
2023-04-20T07:19:54.668Z,101059.63
2023-04-20T07:22:23.074Z,101065.47
2023-04-20T07:24:51.804Z,101060.16
2023-04-20T07:27:20.049Z,101055.66
2023-04-20T07:29:48.209Z,101062.66
2023-04-20T07:32:17.759Z,101053.50
2023-04-20T07:34:45.982Z,101053.31
2023-04-20T07:37:14.442Z,101058.81
2023-04-20T07:39:42.625Z,101058.63
2023-04-20T07:42:10.721Z,101060.50
2023-04-20T07:44:38.809Z,101061.97
2023-04-20T07:47:07.377Z,101060.03
2023-04-20T07:49:40.921Z,101055.31
2023-04-20T07:52:16.351Z,101062.16
2023-04-20T07:54:45.410Z,101067.53
2023-04-20T07:57:13.689Z,101064.72
2023-04-20T07:59:41.819Z,101054.72
2023-04-20T08:02:10.942Z,101045.56
2023-04-20T08:04:41.170Z,101050.88
2023-04-20T08:07:09.701Z,101059.81
2023-04-20T08:09:38.074Z,101061.03
2023-04-20T08:12:06.500Z,101066.88
2023-04-20T08:14:34.938Z,101055.69
2023-04-20T08:17:03.585Z,101056.69
2023-04-20T08:19:32.118Z,101051.41
2023-04-20T08:22:02.295Z,101043.81
2023-04-20T08:24:31.439Z,101046.78
2023-04-20T08:27:01.713Z,101049.06
2023-04-20T08:29:29.778Z,101052.09
2023-04-20T08:31:58.453Z,101051.13
2023-04-20T08:34:26.635Z,101057.06
2023-04-20T08:36:54.837Z,101043.03
2023-04-20T08:39:24.597Z,101052.25
2023-04-20T08:41:54.055Z,101050.88
2023-04-20T08:44:22.406Z,101054.88
2023-04-20T08:46:50.940Z,101052.34
2023-04-20T08:49:20.354Z,101050.03
2023-04-20T08:51:49.114Z,101037.94
2023-04-20T08:54:17.626Z,101054.69
2023-04-20T08:56:48.234Z,101054.88
2023-04-20T08:59:17.076Z,101061.09
2023-04-20T09:01:46.587Z,101061.13
2023-04-20T09:04:19.161Z,101062.50
2023-04-20T09:06:50.282Z,101058.88
2023-04-20T09:09:18.896Z,101057.41
2023-04-20T09:11:48.736Z,101062.19
2023-04-20T09:14:18.472Z,101064.94
2023-04-20T09:16:51.382Z,101069.53
2023-04-20T09:19:23.189Z,101066.25
2023-04-20T09:21:51.912Z,101069.34
2023-04-20T09:24:21.549Z,101073.38
2023-04-20T09:26:51.331Z,101064.28
2023-04-20T09:29:20.657Z,101057.88
2023-04-20T09:31:49.003Z,101054.13
2023-04-20T09:34:17.461Z,101045.91
2023-04-20T09:36:46.583Z,101051.19
2023-04-20T09:39:16.738Z,101058.59
2023-04-20T09:41:44.862Z,101070.66
2023-04-20T09:44:15.269Z,101060.28
2023-04-20T09:46:43.987Z,101072.78
2023-04-20T09:49:12.934Z,101049.16
2023-04-20T09:51:43.837Z,101053.66
2023-04-20T09:54:12.536Z,101046.56
2023-04-20T09:56:41.252Z,101042.75
2023-04-20T09:59:09.881Z,101035.63
2023-04-20T10:01:39.531Z,101048.25
2023-04-20T10:04:10.852Z,101038.97
2023-04-20T10:06:39.676Z,101035.25
2023-04-20T10:09:08.706Z,101026.34
2023-04-20T10:11:51.649Z,101017.84
2023-04-20T10:14:23.180Z,101019.13
2023-04-20T10:17:02.098Z,101018.28
2023-04-20T10:19:40.880Z,101040.91
2023-04-20T10:22:09.578Z,101041.38
2023-04-20T10:24:38.753Z,101047.44
2023-04-20T10:27:17.607Z,101061.31
2023-04-20T10:29:45.664Z,101044.28
2023-04-20T10:32:24.658Z,101036.88
2023-04-20T10:35:02.809Z,101038.56
2023-04-20T10:37:32.408Z,101031.38
2023-04-20T10:40:00.763Z,101033.94
2023-04-20T10:42:29.758Z,101037.28
2023-04-20T10:44:58.015Z,101029.53
2023-04-20T10:47:31.551Z,101036.84
2023-04-20T10:50:07.905Z,101041.09
2023-04-20T10:52:37.053Z,101040.78
2023-04-20T10:55:05.787Z,101020.16
2023-04-20T10:57:33.923Z,101025.88
2023-04-20T11:00:02.394Z,101025.22
2023-04-20T11:02:32.225Z,101026.97
2023-04-20T11:05:01.500Z,101026.63
2023-04-20T11:07:30.202Z,101037.28
2023-04-20T11:09:58.402Z,101024.56
2023-04-20T11:12:26.964Z,101025.03
2023-04-20T11:14:56.414Z,101013.19
2023-04-20T11:17:40.785Z,101016.06
2023-04-20T11:20:11.180Z,101019.84
2023-04-20T11:22:39.957Z,101013.94
2023-04-20T11:25:08.854Z,101032.34
2023-04-20T11:27:37.256Z,101028.09
2023-04-20T11:30:06.809Z,101019.69
2023-04-20T11:32:38.263Z,101016.69
2023-04-20T11:35:08.791Z,101009.84
2023-04-20T11:37:47.141Z,101011.38
2023-04-20T11:40:15.281Z,100993.78
2023-04-20T11:42:43.313Z,100997.00
2023-04-20T11:45:12.160Z,100987.00
2023-04-20T11:47:42.403Z,101009.34
2023-04-20T11:50:11.748Z,100993.69
2023-04-20T11:52:40.198Z,100992.00
2023-04-20T11:55:08.622Z,100989.38
2023-04-20T11:57:37.044Z,100982.13
2023-04-20T12:00:06.696Z,100984.38
2023-04-20T12:02:43.835Z,100985.75
2023-04-20T12:05:12.469Z,100984.50
2023-04-20T12:07:40.701Z,100988.28
2023-04-20T12:10:09.670Z,100981.13
2023-04-20T12:12:38.414Z,100977.50
2023-04-20T12:15:07.665Z,100983.22
2023-04-20T12:17:35.841Z,100978.59
2023-04-20T12:20:08.961Z,100982.91
2023-04-20T12:22:37.237Z,100998.59
2023-04-20T12:25:06.304Z,100979.28
2023-04-20T12:27:34.757Z,100977.91
2023-04-20T12:30:04.249Z,100975.59
2023-04-20T12:32:32.652Z,100976.56
2023-04-20T12:35:00.794Z,100985.03
2023-04-20T12:37:30.968Z,100970.03
2023-04-20T12:39:58.990Z,100965.06
2023-04-20T12:42:27.423Z,100977.88
2023-04-20T12:44:56.315Z,100967.16
2023-04-20T12:47:24.379Z,100977.75
2023-04-20T12:49:52.973Z,100965.88
2023-04-20T12:52:21.165Z,100969.69
2023-04-20T12:54:51.056Z,100966.69
2023-04-20T12:57:19.132Z,100968.19
2023-04-20T12:59:48.623Z,100968.19
2023-04-20T13:02:18.079Z,100971.00
2023-04-20T13:04:47.155Z,100961.31
2023-04-20T13:07:15.524Z,100952.03
2023-04-20T13:09:43.836Z,100964.97
2023-04-20T13:12:14.057Z,100959.00
2023-04-20T13:14:42.826Z,100961.16
2023-04-20T13:17:10.806Z,100955.13
2023-04-20T13:19:38.925Z,100955.91
2023-04-20T13:22:07.332Z,100950.94
2023-04-20T13:24:35.811Z,100956.88
2023-04-20T13:27:04.678Z,100951.09
2023-04-20T13:29:34.551Z,100938.03
2023-04-20T13:32:02.600Z,100936.31
2023-04-20T13:34:30.639Z,100952.94
2023-04-20T13:36:59.217Z,100938.19
2023-04-20T13:39:27.972Z,100947.38
2023-04-20T13:41:56.061Z,100955.78
2023-04-20T13:44:24.240Z,100949.69
2023-04-20T13:46:53.942Z,100956.41
2023-04-20T13:49:23.088Z,100957.13
2023-04-20T13:51:51.347Z,100944.28
2023-04-20T13:54:19.965Z,100940.00
2023-04-20T13:56:49.802Z,100933.53
2023-04-20T13:59:18.116Z,100931.63
2023-04-20T14:01:46.270Z,100944.19
2023-04-20T14:04:17.133Z,100919.16
2023-04-20T14:06:45.400Z,100922.72
2023-04-20T14:09:13.566Z,100927.19
2023-04-20T14:11:43.740Z,100926.16
2023-04-20T14:14:12.254Z,100910.84
2023-04-20T14:16:44.029Z,100922.03
2023-04-20T14:19:12.142Z,100915.94
2023-04-20T14:21:44.376Z,100916.41
2023-04-20T14:24:12.986Z,100916.78
2023-04-20T14:26:41.677Z,100913.81
2023-04-20T14:29:09.661Z,100916.06
2023-04-20T14:31:37.752Z,100905.31
2023-04-20T14:34:05.852Z,100899.31
2023-04-20T14:36:34.261Z,100893.00
2023-04-20T14:39:03.833Z,100893.19
2023-04-20T14:41:33.577Z,100887.94
2023-04-20T14:44:01.696Z,100888.22
2023-04-20T14:46:29.854Z,100886.38
2023-04-20T14:48:58.154Z,100882.22
2023-04-20T14:51:27.199Z,100871.44
2023-04-20T14:53:55.367Z,100880.00
2023-04-20T14:56:25.398Z,100881.78
2023-04-20T14:58:53.497Z,100865.50
2023-04-20T15:01:21.978Z,100866.81
2023-04-20T15:03:50.331Z,100872.00
2023-04-20T15:06:18.625Z,100877.50
2023-04-20T15:08:46.700Z,100873.94
2023-04-20T15:11:15.156Z,100868.50
2023-04-20T15:13:44.630Z,100876.97
2023-04-20T15:16:13.217Z,100867.03
2023-04-20T15:18:41.468Z,100861.88
2023-04-20T15:21:10.884Z,100857.75
2023-04-20T15:23:39.118Z,100857.75
2023-04-20T15:26:08.068Z,100849.03
2023-04-20T15:28:36.440Z,100868.78
2023-04-20T15:31:06.959Z,100843.72
2023-04-20T15:33:35.236Z,100849.28
2023-04-20T15:36:03.521Z,100846.41
2023-04-20T15:38:31.889Z,100849.91
2023-04-20T15:41:00.089Z,100839.41
2023-04-20T15:43:28.159Z,100845.22
2023-04-20T15:45:56.204Z,100838.09
2023-04-20T15:48:26.154Z,100846.59
2023-04-20T15:50:54.545Z,100843.50
2023-04-20T15:53:23.103Z,100848.84
2023-04-20T15:55:51.592Z,100834.38
2023-04-20T15:58:19.693Z,100838.78
2023-04-20T16:00:47.832Z,100837.88
2023-04-20T16:03:16.488Z,100841.00
2023-04-20T16:05:46.239Z,100846.53
2023-04-20T16:08:14.694Z,100836.31
2023-04-20T16:10:43.024Z,100848.53
2023-04-20T16:13:11.980Z,100839.13
2023-04-20T16:15:40.195Z,100838.19
2023-04-20T16:18:08.679Z,100840.22
2023-04-20T16:20:37.218Z,100842.03
2023-04-20T16:23:07.773Z,100843.97
2023-04-20T16:25:38.476Z,100830.91
2023-04-20T16:28:06.653Z,100832.63
2023-04-20T16:30:34.736Z,100834.38
2023-04-20T16:33:03.069Z,100829.72
2023-04-20T16:35:31.135Z,100831.16
2023-04-20T16:37:59.490Z,100821.94
2023-04-20T16:40:29.508Z,100836.78
2023-04-20T16:42:57.726Z,100830.28
2023-04-20T16:45:25.921Z,100826.84
2023-04-20T16:47:54.347Z,100826.22
2023-04-20T16:50:22.457Z,100826.09
2023-04-20T16:52:50.742Z,100826.78
2023-04-20T16:55:19.150Z,100829.91
2023-04-20T16:57:48.657Z,100824.00
2023-04-20T17:00:17.243Z,100818.66
2023-04-20T17:02:45.927Z,100826.50
2023-04-20T17:05:14.836Z,100837.28
2023-04-20T17:07:42.881Z,100815.75
2023-04-20T17:10:11.192Z,100819.16
2023-04-20T17:12:42.838Z,100823.03
2023-04-20T17:15:13.770Z,100822.34
2023-04-20T17:17:42.701Z,100824.72
2023-04-20T17:20:11.580Z,100826.69
2023-04-20T17:22:40.360Z,100823.94
2023-04-20T17:25:08.998Z,100833.09
2023-04-20T17:27:37.706Z,100828.22
2023-04-20T17:30:06.263Z,100828.94
2023-04-20T17:32:36.309Z,100823.72
2023-04-20T17:35:04.506Z,100821.41
2023-04-20T17:37:33.016Z,100820.13
2023-04-20T17:40:01.569Z,100817.50
2023-04-20T17:42:30.798Z,100819.22
2023-04-20T17:44:59.691Z,100815.34
2023-04-20T17:47:31.239Z,100819.25
2023-04-20T17:50:01.434Z,100826.34
2023-04-20T17:52:29.492Z,100819.22
2023-04-20T17:55:00.125Z,100812.09
2023-04-20T17:57:28.253Z,100816.84
2023-04-20T17:59:56.729Z,100813.16
2023-04-20T18:02:25.094Z,100819.47
2023-04-20T18:04:55.393Z,100815.56
2023-04-20T18:07:25.249Z,100820.47
2023-04-20T18:09:53.448Z,100813.69
2023-04-20T18:12:21.857Z,100821.97
2023-04-20T18:14:49.972Z,100819.31
2023-04-20T18:17:18.561Z,100819.47
2023-04-20T18:19:46.718Z,100816.75
2023-04-20T18:22:15.402Z,100812.00
2023-04-20T18:24:45.112Z,100810.50
2023-04-20T18:27:13.859Z,100806.06
2023-04-20T18:29:42.240Z,100811.97
2023-04-20T18:32:10.364Z,100808.78
2023-04-20T18:34:38.718Z,100815.84
2023-04-20T18:37:07.865Z,100813.47
2023-04-20T18:39:36.772Z,100813.44
2023-04-20T18:42:07.037Z,100813.25
2023-04-20T18:44:35.578Z,100803.22
2023-04-20T18:47:03.991Z,100814.88
2023-04-20T18:49:32.850Z,100812.66
2023-04-20T18:52:01.718Z,100808.25
2023-04-20T18:54:30.894Z,100807.84
2023-04-20T18:56:59.620Z,100810.41
2023-04-20T18:59:29.200Z,100805.41
2023-04-20T19:01:57.412Z,100806.72
2023-04-20T19:04:26.034Z,100802.75
2023-04-20T19:06:54.100Z,100800.53
2023-04-20T19:09:22.286Z,100802.69
2023-04-20T19:11:51.288Z,100803.38
2023-04-20T19:14:19.673Z,100804.03
2023-04-20T19:16:49.788Z,100806.66
2023-04-20T19:19:17.916Z,100808.53
2023-04-20T19:21:46.218Z,100798.69
2023-04-20T19:24:14.488Z,100799.38
2023-04-20T19:26:42.641Z,100803.00
2023-04-20T19:29:12.456Z,100796.34
2023-04-20T19:31:42.231Z,100795.88
2023-04-20T19:34:15.639Z,100801.50
2023-04-20T19:36:44.292Z,100802.00
2023-04-20T19:39:13.211Z,100799.25
2023-04-20T19:41:42.276Z,100799.25
2023-04-20T19:44:12.231Z,100800.47
2023-04-20T19:46:40.928Z,100797.97
2023-04-20T19:49:09.106Z,100800.09
2023-04-20T19:51:38.900Z,100796.59
2023-04-20T19:54:07.444Z,100794.34
2023-04-20T19:56:37.128Z,100794.94
2023-04-20T19:59:05.366Z,100789.53
2023-04-20T20:01:33.432Z,100793.06
2023-04-20T20:04:02.029Z,100788.66
2023-04-20T20:06:31.119Z,100779.03
2023-04-20T20:09:00.909Z,100787.41
2023-04-20T20:11:29.160Z,100778.22
2023-04-20T20:13:57.144Z,100774.84
2023-04-20T20:16:28.192Z,100773.16
2023-04-20T20:18:56.939Z,100764.09
2023-04-20T20:21:25.392Z,100772.03
2023-04-20T20:23:53.712Z,100771.34
2023-04-20T20:26:23.813Z,100769.53
2023-04-20T20:28:52.410Z,100768.66
2023-04-20T20:31:21.912Z,100776.72
2023-04-20T20:33:50.528Z,100765.78
2023-04-20T20:36:19.138Z,100760.94
2023-04-20T20:38:47.421Z,100764.56
2023-04-20T20:41:16.581Z,100763.25
2023-04-20T20:43:46.741Z,100757.69
2023-04-20T20:46:15.482Z,100756.25
2023-04-20T20:48:43.602Z,100751.72
2023-04-20T20:51:12.259Z,100756.44
2023-04-20T20:53:41.313Z,100753.34
2023-04-20T20:56:09.590Z,100754.91
2023-04-20T20:58:38.000Z,100742.19
2023-04-20T21:01:07.963Z,100740.22
2023-04-20T21:03:37.117Z,100747.31
2023-04-20T21:06:06.098Z,100741.78
2023-04-20T21:08:34.455Z,100742.91
2023-04-20T21:11:02.524Z,100737.81
2023-04-20T21:13:31.185Z,100737.91
2023-04-20T21:15:59.634Z,100738.44
2023-04-20T21:18:30.198Z,100736.03
2023-04-20T21:20:58.483Z,100750.22
2023-04-20T21:23:26.845Z,100748.13
2023-04-20T21:25:54.911Z,100755.59
2023-04-20T21:28:23.155Z,100756.66
2023-04-20T21:30:52.204Z,100751.56
2023-04-20T21:33:20.412Z,100753.78
2023-04-20T21:35:50.674Z,100746.13
2023-04-20T21:38:18.851Z,100744.97
2023-04-20T21:40:47.045Z,100745.22
2023-04-20T21:43:15.197Z,100747.59
2023-04-20T21:45:43.475Z,100742.63
2023-04-20T21:48:12.053Z,100738.75
2023-04-20T21:50:40.323Z,100736.53
2023-04-20T21:53:10.307Z,100741.81
2023-04-20T21:55:38.338Z,100737.66
2023-04-20T21:58:06.407Z,100735.25
2023-04-20T22:00:34.701Z,100733.91
2023-04-20T22:03:03.185Z,100735.41
2023-04-20T22:05:31.813Z,100736.84
2023-04-20T22:08:00.217Z,100740.41
2023-04-20T22:10:29.722Z,100736.38
2023-04-20T22:12:58.196Z,100739.13
2023-04-20T22:15:26.301Z,100732.81
2023-04-20T22:17:54.812Z,100732.75
2023-04-20T22:20:23.161Z,100729.91
2023-04-20T22:22:51.262Z,100737.25
2023-04-20T22:25:20.057Z,100732.59
2023-04-20T22:27:49.639Z,100734.69
2023-04-20T22:30:17.937Z,100737.25
2023-04-20T22:32:46.235Z,100739.09
2023-04-20T22:35:15.038Z,100736.69
2023-04-20T22:37:43.130Z,100735.91
2023-04-20T22:40:12.429Z,100739.38
2023-04-20T22:42:40.466Z,100741.38
2023-04-20T22:45:11.932Z,100734.56
2023-04-20T22:47:40.800Z,100731.41
2023-04-20T22:50:12.353Z,100727.44
2023-04-20T22:52:40.582Z,100725.16
2023-04-20T22:55:09.968Z,100721.09
2023-04-20T22:57:39.091Z,100728.50
2023-04-20T23:00:10.912Z,100721.28
2023-04-20T23:02:41.099Z,100717.69
2023-04-20T23:05:09.767Z,100722.59
2023-04-20T23:07:37.986Z,100724.09
2023-04-20T23:10:07.142Z,100720.47
2023-04-20T23:12:35.159Z,100713.03
2023-04-20T23:15:03.864Z,100715.75
2023-04-20T23:17:32.608Z,100709.56
2023-04-20T23:20:02.075Z,100710.88
2023-04-20T23:22:31.085Z,100718.22
2023-04-20T23:24:59.391Z,100716.75
2023-04-20T23:27:27.401Z,100712.38
2023-04-20T23:29:55.691Z,100707.28
2023-04-20T23:32:24.725Z,100708.25
2023-04-20T23:34:52.922Z,100704.72
2023-04-20T23:37:22.537Z,100702.44
2023-04-20T23:39:50.800Z,100708.63
2023-04-20T23:42:19.109Z,100695.41
2023-04-20T23:44:47.353Z,100701.00
2023-04-20T23:47:15.809Z,100696.38
2023-04-20T23:49:44.113Z,100691.66
2023-04-20T23:52:12.589Z,100682.91
2023-04-20T23:54:42.077Z,100678.38
2023-04-20T23:57:10.148Z,100678.66
2023-04-20T23:59:38.443Z,100676.94
